sensor_id;sensor_type;location;lat;lon;timestamp;pressure;altitude;pressure_sealevel;temperature;humidity
1401;BME280;46518;48.842;8.926;2023-05-08T00:01:36;97369.78;;;16.14;100.00
1401;BME280;46518;48.842;8.926;2023-05-08T00:04:04;97372.16;;;16.16;100.00
1401;BME280;46518;48.842;8.926;2023-05-08T00:06:33;97375.97;;;16.00;100.00
1401;BME280;46518;48.842;8.926;2023-05-08T00:09:03;97383.88;;;16.10;100.00
1401;BME280;46518;48.842;8.926;2023-05-08T00:11:31;97378.59;;;16.05;100.00
1401;BME280;46518;48.842;8.926;2023-05-08T00:14:00;97382.88;;;16.01;100.00
1401;BME280;46518;48.842;8.926;2023-05-08T00:16:28;97386.59;;;15.94;100.00
1401;BME280;46518;48.842;8.926;2023-05-08T00:18:56;97386.09;;;15.87;100.00
1401;BME280;46518;48.842;8.926;2023-05-08T00:21:25;97388.50;;;15.89;100.00
1401;BME280;46518;48.842;8.926;2023-05-08T00:23:53;97396.97;;;15.96;100.00
1401;BME280;46518;48.842;8.926;2023-05-08T00:26:23;97380.78;;;15.98;100.00
1401;BME280;46518;48.842;8.926;2023-05-08T00:28:51;97394.25;;;16.06;100.00
1401;BME280;46518;48.842;8.926;2023-05-08T00:31:19;97382.84;;;16.06;100.00
1401;BME280;46518;48.842;8.926;2023-05-08T00:33:48;97386.03;;;16.08;100.00
1401;BME280;46518;48.842;8.926;2023-05-08T00:36:16;97390.50;;;16.12;100.00
1401;BME280;46518;48.842;8.926;2023-05-08T00:38:45;97384.13;;;16.13;100.00
1401;BME280;46518;48.842;8.926;2023-05-08T00:41:13;97382.53;;;16.12;100.00
1401;BME280;46518;48.842;8.926;2023-05-08T00:43:43;97384.38;;;16.12;100.00
1401;BME280;46518;48.842;8.926;2023-05-08T00:46:12;97395.81;;;16.12;100.00
1401;BME280;46518;48.842;8.926;2023-05-08T00:48:43;97388.66;;;16.13;100.00
1401;BME280;46518;48.842;8.926;2023-05-08T00:51:12;97395.00;;;16.12;100.00
1401;BME280;46518;48.842;8.926;2023-05-08T00:53:42;97393.44;;;16.11;100.00
1401;BME280;46518;48.842;8.926;2023-05-08T00:56:13;97393.16;;;16.12;100.00
1401;BME280;46518;48.842;8.926;2023-05-08T00:58:43;97390.00;;;16.10;100.00
1401;BME280;46518;48.842;8.926;2023-05-08T01:01:13;97389.19;;;16.15;100.00
1401;BME280;46518;48.842;8.926;2023-05-08T01:03:42;97401.59;;;16.20;100.00
1401;BME280;46518;48.842;8.926;2023-05-08T01:06:11;97394.19;;;16.16;100.00
1401;BME280;46518;48.842;8.926;2023-05-08T01:08:39;97394.97;;;16.17;100.00
1401;BME280;46518;48.842;8.926;2023-05-08T01:11:12;97393.63;;;16.20;100.00
1401;BME280;46518;48.842;8.926;2023-05-08T01:13:50;97392.84;;;16.19;100.00
1401;BME280;46518;48.842;8.926;2023-05-08T01:16:28;97394.19;;;16.16;100.00
1401;BME280;46518;48.842;8.926;2023-05-08T01:19:03;97391.81;;;16.20;100.00
1401;BME280;46518;48.842;8.926;2023-05-08T01:21:40;97392.84;;;16.19;100.00
1401;BME280;46518;48.842;8.926;2023-05-08T01:24:43;97391.31;;;16.13;100.00
1401;BME280;46518;48.842;8.926;2023-05-08T01:28:02;97399.56;;;16.06;100.00
1401;BME280;46518;48.842;8.926;2023-05-08T01:30:58;97396.66;;;16.08;100.00
1401;BME280;46518;48.842;8.926;2023-05-08T01:33:36;97399.31;;;16.08;100.00
1401;BME280;46518;48.842;8.926;2023-05-08T01:36:17;97397.72;;;16.02;100.00
1401;BME280;46518;48.842;8.926;2023-05-08T01:38:55;97398.28;;;15.99;100.00
1401;BME280;46518;48.842;8.926;2023-05-08T01:41:29;97396.69;;;15.98;100.00
1401;BME280;46518;48.842;8.926;2023-05-08T01:44:09;97403.63;;;15.88;100.00
1401;BME280;46518;48.842;8.926;2023-05-08T01:46:41;97406.59;;;15.77;100.00
1401;BME280;46518;48.842;8.926;2023-05-08T01:49:18;97405.78;;;15.81;100.00
1401;BME280;46518;48.842;8.926;2023-05-08T01:51:56;97409.50;;;15.65;100.00
1401;BME280;46518;48.842;8.926;2023-05-08T01:54:27;97407.38;;;15.77;100.00
1401;BME280;46518;48.842;8.926;2023-05-08T01:56:58;97401.03;;;15.78;100.00
1401;BME280;46518;48.842;8.926;2023-05-08T01:59:29;97402.00;;;15.92;100.00
1401;BME280;46518;48.842;8.926;2023-05-08T02:02:00;97402.50;;;16.00;100.00
1401;BME280;46518;48.842;8.926;2023-05-08T02:04:32;97405.69;;;16.02;100.00
1401;BME280;46518;48.842;8.926;2023-05-08T02:07:06;97411.53;;;16.04;100.00
1401;BME280;46518;48.842;8.926;2023-05-08T02:09:36;97405.69;;;16.02;100.00
1401;BME280;46518;48.842;8.926;2023-05-08T02:12:07;97403.03;;;16.02;100.00
1401;BME280;46518;48.842;8.926;2023-05-08T02:14:36;97403.81;;;16.02;100.00
1401;BME280;46518;48.842;8.926;2023-05-08T02:17:06;97405.69;;;16.02;100.00
1401;BME280;46518;48.842;8.926;2023-05-08T02:19:39;97407.31;;;15.98;100.00
1401;BME280;46518;48.842;8.926;2023-05-08T02:22:08;97411.56;;;15.93;100.00
1401;BME280;46518;48.842;8.926;2023-05-08T02:24:38;97406.25;;;15.93;100.00
1401;BME280;46518;48.842;8.926;2023-05-08T02:27:08;97406.25;;;15.93;100.00
1401;BME280;46518;48.842;8.926;2023-05-08T02:29:37;97412.63;;;15.92;100.00
1401;BME280;46518;48.842;8.926;2023-05-08T02:32:07;97399.44;;;15.72;100.00
1401;BME280;46518;48.842;8.926;2023-05-08T02:34:38;97407.38;;;15.67;100.00
1401;BME280;46518;48.842;8.926;2023-05-08T02:37:22;97423.84;;;15.74;100.00
1401;BME280;46518;48.842;8.926;2023-05-08T02:39:52;97422.28;;;15.73;100.00
1401;BME280;46518;48.842;8.926;2023-05-08T02:42:23;97422.28;;;15.73;100.00
1401;BME280;46518;48.842;8.926;2023-05-08T02:44:52;97410.31;;;15.76;100.00
1401;BME280;46518;48.842;8.926;2023-05-08T02:47:24;97417.16;;;15.87;100.00
1401;BME280;46518;48.842;8.926;2023-05-08T02:50:01;97419.31;;;15.80;100.00
1401;BME280;46518;48.842;8.926;2023-05-08T02:52:36;97424.09;;;15.67;100.00
1401;BME280;46518;48.842;8.926;2023-05-08T02:55:10;97425.97;;;15.67;100.00
1401;BME280;46518;48.842;8.926;2023-05-08T02:57:45;97428.38;;;15.73;100.00
1401;BME280;46518;48.842;8.926;2023-05-08T03:00:17;97425.44;;;15.80;100.00
1401;BME280;46518;48.842;8.926;2023-05-08T03:02:49;97422.50;;;15.82;100.00
1401;BME280;46518;48.842;8.926;2023-05-08T03:05:27;97426.47;;;15.79;100.00
1401;BME280;46518;48.842;8.926;2023-05-08T03:07:59;97421.19;;;15.69;100.00
1401;BME280;46518;48.842;8.926;2023-05-08T03:10:33;97409.28;;;15.61;100.00
1401;BME280;46518;48.842;8.926;2023-05-08T03:13:03;97423.84;;;15.69;100.00
1401;BME280;46518;48.842;8.926;2023-05-08T03:15:34;97415.09;;;15.79;100.00
1401;BME280;46518;48.842;8.926;2023-05-08T03:18:06;97419.31;;;15.80;100.00
1401;BME280;46518;48.842;8.926;2023-05-08T03:20:40;97416.41;;;15.81;100.00
1401;BME280;46518;48.842;8.926;2023-05-08T03:23:11;97414.78;;;15.85;100.00
1401;BME280;46518;48.842;8.926;2023-05-08T03:25:42;97409.97;;;15.92;100.00
1401;BME280;46518;48.842;8.926;2023-05-08T03:28:12;97412.63;;;15.98;100.00
1401;BME280;46518;48.842;8.926;2023-05-08T03:30:42;97409.16;;;15.97;100.00
1401;BME280;46518;48.842;8.926;2023-05-08T03:33:13;97404.66;;;15.98;100.00
1401;BME280;46518;48.842;8.926;2023-05-08T03:35:45;97415.25;;;16.03;100.00
1401;BME280;46518;48.842;8.926;2023-05-08T03:38:15;97415.56;;;15.91;100.00
1401;BME280;46518;48.842;8.926;2023-05-08T03:40:43;97424.13;;;15.72;100.00
1401;BME280;46518;48.842;8.926;2023-05-08T03:43:14;97429.44;;;15.78;100.00
1401;BME280;46518;48.842;8.926;2023-05-08T03:45:44;97426.78;;;15.78;100.00
1401;BME280;46518;48.842;8.926;2023-05-08T03:48:13;97413.19;;;15.84;100.00
1401;BME280;46518;48.842;8.926;2023-05-08T03:50:42;97416.13;;;15.88;100.00
1401;BME280;46518;48.842;8.926;2023-05-08T03:53:13;97409.72;;;15.89;100.00
1401;BME280;46518;48.842;8.926;2023-05-08T03:55:41;97419.00;;;15.91;100.00
1401;BME280;46518;48.842;8.926;2023-05-08T03:58:20;97420.09;;;15.90;100.00
1401;BME280;46518;48.842;8.926;2023-05-08T04:01:00;97419.81;;;15.87;100.00
1401;BME280;46518;48.842;8.926;2023-05-08T04:03:46;97423.28;;;15.82;100.00
1401;BME280;46518;48.842;8.926;2023-05-08T04:06:23;97420.91;;;15.86;100.00
1401;BME280;46518;48.842;8.926;2023-05-08T04:09:06;97424.88;;;15.88;100.00
1401;BME280;46518;48.842;8.926;2023-05-08T04:11:41;97420.59;;;15.87;100.00
1401;BME280;46518;48.842;8.926;2023-05-08T04:14:14;97423.25;;;15.92;100.00
1401;BME280;46518;48.842;8.926;2023-05-08T04:16:47;97424.28;;;15.96;100.00
1401;BME280;46518;48.842;8.926;2023-05-08T04:19:21;97421.38;;;15.98;100.00
1401;BME280;46518;48.842;8.926;2023-05-08T04:21:53;97430.38;;;15.97;100.00
1401;BME280;46518;48.842;8.926;2023-05-08T04:24:27;97433.31;;;16.01;100.00
1401;BME280;46518;48.842;8.926;2023-05-08T04:26:58;97433.31;;;16.01;100.00
1401;BME280;46518;48.842;8.926;2023-05-08T04:29:27;97436.22;;;16.04;100.00
1401;BME280;46518;48.842;8.926;2023-05-08T04:31:56;97443.38;;;16.04;100.00
1401;BME280;46518;48.842;8.926;2023-05-08T04:34:27;97440.19;;;16.02;100.00
1401;BME280;46518;48.842;8.926;2023-05-08T04:36:56;97446.28;;;16.02;100.00
1401;BME280;46518;48.842;8.926;2023-05-08T04:39:25;97448.16;;;16.07;100.00
1401;BME280;46518;48.842;8.926;2023-05-08T04:41:53;97440.69;;;16.09;100.00
1401;BME280;46518;48.842;8.926;2023-05-08T04:44:30;97445.19;;;16.13;100.00
1401;BME280;46518;48.842;8.926;2023-05-08T04:46:58;97446.78;;;16.14;100.00
1401;BME280;46518;48.842;8.926;2023-05-08T04:49:26;97452.63;;;16.16;100.00
1401;BME280;46518;48.842;8.926;2023-05-08T04:51:54;97457.91;;;16.22;100.00
1401;BME280;46518;48.842;8.926;2023-05-08T04:54:22;97458.72;;;16.17;100.00
1401;BME280;46518;48.842;8.926;2023-05-08T04:56:52;97458.72;;;16.17;100.00
1401;BME280;46518;48.842;8.926;2023-05-08T04:59:20;97460.84;;;16.20;100.00
1401;BME280;46518;48.842;8.926;2023-05-08T05:01:50;97460.00;;;16.25;100.00
1401;BME280;46518;48.842;8.926;2023-05-08T05:04:20;97465.31;;;16.25;100.00
1401;BME280;46518;48.842;8.926;2023-05-08T05:06:48;97464.00;;;16.22;100.00
1401;BME280;46518;48.842;8.926;2023-05-08T05:09:16;97460.00;;;16.25;100.00
1401;BME280;46518;48.842;8.926;2023-05-08T05:11:45;97465.59;;;16.23;100.00
1401;BME280;46518;48.842;8.926;2023-05-08T05:14:14;97471.44;;;16.25;100.00
1401;BME280;46518;48.842;8.926;2023-05-08T05:16:43;97465.28;;;16.30;100.00
1401;BME280;46518;48.842;8.926;2023-05-08T05:19:11;97464.78;;;16.28;100.00
1401;BME280;46518;48.842;8.926;2023-05-08T05:21:40;97478.56;;;16.30;100.00
1401;BME280;46518;48.842;8.926;2023-05-08T05:24:09;97472.44;;;16.34;100.00
1401;BME280;46518;48.842;8.926;2023-05-08T05:26:38;97475.09;;;16.34;100.00
1401;BME280;46518;48.842;8.926;2023-05-08T05:29:07;97480.41;;;16.34;100.00
1401;BME280;46518;48.842;8.926;2023-05-08T05:31:36;97471.13;;;16.32;100.00
1401;BME280;46518;48.842;8.926;2023-05-08T05:34:06;97476.41;;;16.37;100.00
1401;BME280;46518;48.842;8.926;2023-05-08T05:36:35;97474.28;;;16.39;100.00
1401;BME280;46518;48.842;8.926;2023-05-08T05:39:04;97484.66;;;16.41;100.00
1401;BME280;46518;48.842;8.926;2023-05-08T05:41:33;97486.22;;;16.42;100.00
1401;BME280;46518;48.842;8.926;2023-05-08T05:44:02;97482.53;;;16.37;100.00
1401;BME280;46518;48.842;8.926;2023-05-08T05:46:31;97484.91;;;16.39;100.00
1401;BME280;46518;48.842;8.926;2023-05-08T05:49:03;97483.03;;;16.39;100.00
1401;BME280;46518;48.842;8.926;2023-05-08T05:51:32;97486.00;;;16.38;100.00
1401;BME280;46518;48.842;8.926;2023-05-08T05:54:00;97477.72;;;16.39;100.00
1401;BME280;46518;48.842;8.926;2023-05-08T05:56:29;97489.66;;;16.42;100.00
1401;BME280;46518;48.842;8.926;2023-05-08T05:58:57;97489.69;;;16.37;100.00
1401;BME280;46518;48.842;8.926;2023-05-08T06:01:26;97486.00;;;16.33;100.00
1401;BME280;46518;48.842;8.926;2023-05-08T06:03:55;97486.81;;;16.33;100.00
1401;BME280;46518;48.842;8.926;2023-05-08T06:06:25;97488.34;;;16.39;100.00
1401;BME280;46518;48.842;8.926;2023-05-08T06:08:53;97482.25;;;16.39;100.00
1401;BME280;46518;48.842;8.926;2023-05-08T06:11:22;97498.19;;;16.39;100.00
1401;BME280;46518;48.842;8.926;2023-05-08T06:13:50;97499.25;;;16.43;100.00
1401;BME280;46518;48.842;8.926;2023-05-08T06:16:19;97499.47;;;16.47;100.00
1401;BME280;46518;48.842;8.926;2023-05-08T06:18:49;97501.09;;;16.48;100.00
1401;BME280;46518;48.842;8.926;2023-05-08T06:21:17;97495.25;;;16.46;100.00
1401;BME280;46518;48.842;8.926;2023-05-08T06:23:47;97509.88;;;16.43;100.00
1401;BME280;46518;48.842;8.926;2023-05-08T06:26:16;97506.13;;;16.44;100.00
1401;BME280;46518;48.842;8.926;2023-05-08T06:28:44;97507.97;;;16.49;100.00
1401;BME280;46518;48.842;8.926;2023-05-08T06:31:12;97500.56;;;16.46;100.00
1401;BME280;46518;48.842;8.926;2023-05-08T06:33:41;97504.00;;;16.46;100.00
1401;BME280;46518;48.842;8.926;2023-05-08T06:36:10;97503.75;;;16.48;100.00
1401;BME280;46518;48.842;8.926;2023-05-08T06:38:38;97509.56;;;16.50;100.00
1401;BME280;46518;48.842;8.926;2023-05-08T06:41:08;97504.28;;;16.45;100.00
1401;BME280;46518;48.842;8.926;2023-05-08T06:43:36;97509.06;;;16.48;100.00
1401;BME280;46518;48.842;8.926;2023-05-08T06:46:04;97512.50;;;16.48;100.00
1401;BME280;46518;48.842;8.926;2023-05-08T06:48:33;97502.41;;;16.50;100.00
1401;BME280;46518;48.842;8.926;2023-05-08T06:51:01;97504.25;;;16.50;100.00
1401;BME280;46518;48.842;8.926;2023-05-08T06:53:30;97502.41;;;16.50;100.00
1401;BME280;46518;48.842;8.926;2023-05-08T06:55:58;97507.16;;;16.53;100.00
1401;BME280;46518;48.842;8.926;2023-05-08T06:58:28;97506.59;;;16.56;100.00
1401;BME280;46518;48.842;8.926;2023-05-08T07:00:58;97505.56;;;16.57;100.00
1401;BME280;46518;48.842;8.926;2023-05-08T07:03:27;97505.25;;;16.59;100.00
1401;BME280;46518;48.842;8.926;2023-05-08T07:05:55;97509.50;;;16.65;100.00
1401;BME280;46518;48.842;8.926;2023-05-08T07:08:23;97505.50;;;16.68;100.00
1401;BME280;46518;48.842;8.926;2023-05-08T07:10:51;97507.59;;;16.71;100.00
1401;BME280;46518;48.842;8.926;2023-05-08T07:13:19;97503.84;;;16.72;100.00
1401;BME280;46518;48.842;8.926;2023-05-08T07:15:50;97504.94;;;16.71;100.00
1401;BME280;46518;48.842;8.926;2023-05-08T07:18:18;97509.69;;;16.74;100.00
1401;BME280;46518;48.842;8.926;2023-05-08T07:20:48;97506.78;;;16.75;100.00
1401;BME280;46518;48.842;8.926;2023-05-08T07:23:16;97512.34;;;16.74;100.00
1401;BME280;46518;48.842;8.926;2023-05-08T07:25:44;97511.31;;;16.75;100.00
1401;BME280;46518;48.842;8.926;2023-05-08T07:28:13;97512.88;;;16.76;100.00
1401;BME280;46518;48.842;8.926;2023-05-08T07:30:41;97516.63;;;16.80;100.00
1401;BME280;46518;48.842;8.926;2023-05-08T07:33:11;97521.09;;;16.85;100.00
1401;BME280;46518;48.842;8.926;2023-05-08T07:35:39;97525.63;;;16.84;100.00
1401;BME280;46518;48.842;8.926;2023-05-08T07:38:08;97520.03;;;16.86;100.00
1401;BME280;46518;48.842;8.926;2023-05-08T07:40:36;97517.34;;;16.91;100.00
1401;BME280;46518;48.842;8.926;2023-05-08T07:43:04;97519.41;;;16.99;100.00
1401;BME280;46518;48.842;8.926;2023-05-08T07:45:34;97522.59;;;17.01;100.00
1401;BME280;46518;48.842;8.926;2023-05-08T07:48:03;97525.78;;;17.03;100.00
1401;BME280;46518;48.842;8.926;2023-05-08T07:50:32;97528.97;;;17.05;100.00
1401;BME280;46518;48.842;8.926;2023-05-08T07:53:02;97521.72;;;17.11;100.00
1401;BME280;46518;48.842;8.926;2023-05-08T07:55:30;97525.91;;;17.17;100.00
1401;BME280;46518;48.842;8.926;2023-05-08T07:57:59;97525.88;;;17.22;100.00
1401;BME280;46518;48.842;8.926;2023-05-08T08:00:27;97523.69;;;17.29;100.00
1401;BME280;46518;48.842;8.926;2023-05-08T08:02:55;97520.00;;;17.30;100.00
1401;BME280;46518;48.842;8.926;2023-05-08T08:05:24;97526.53;;;17.43;100.00
1401;BME280;46518;48.842;8.926;2023-05-08T08:07:54;97523.81;;;17.48;99.83
1401;BME280;46518;48.842;8.926;2023-05-08T08:10:22;97527.50;;;17.52;99.73
1401;BME280;46518;48.842;8.926;2023-05-08T08:12:50;97528.59;;;17.51;99.40
1401;BME280;46518;48.842;8.926;2023-05-08T08:15:19;97524.84;;;17.52;98.73
1401;BME280;46518;48.842;8.926;2023-05-08T08:17:47;97529.66;;;17.50;98.36
1401;BME280;46518;48.842;8.926;2023-05-08T08:20:16;97533.69;;;17.48;97.86
1401;BME280;46518;48.842;8.926;2023-05-08T08:22:44;97534.22;;;17.44;97.25
1401;BME280;46518;48.842;8.926;2023-05-08T08:25:14;97529.97;;;17.43;97.16
1401;BME280;46518;48.842;8.926;2023-05-08T08:27:42;97526.78;;;17.41;96.84
1401;BME280;46518;48.842;8.926;2023-05-08T08:30:11;97536.13;;;17.39;96.69
1401;BME280;46518;48.842;8.926;2023-05-08T08:32:47;97535.06;;;17.40;96.25
1401;BME280;46518;48.842;8.926;2023-05-08T08:35:15;97531.38;;;17.36;96.09
1401;BME280;46518;48.842;8.926;2023-05-08T08:37:44;97532.94;;;17.37;96.19
1401;BME280;46518;48.842;8.926;2023-05-08T08:40:13;97519.66;;;17.37;96.07
1401;BME280;46518;48.842;8.926;2023-05-08T08:42:42;97531.59;;;17.39;96.21
1401;BME280;46518;48.842;8.926;2023-05-08T08:45:10;97529.25;;;17.38;96.13
1401;BME280;46518;48.842;8.926;2023-05-08T08:47:43;97533.44;;;17.44;96.18
1401;BME280;46518;48.842;8.926;2023-05-08T08:50:13;97535.56;;;17.42;96.09
1401;BME280;46518;48.842;8.926;2023-05-08T08:52:50;97535.88;;;17.40;95.88
1401;BME280;46518;48.842;8.926;2023-05-08T08:55:24;97538.78;;;17.39;95.66
1401;BME280;46518;48.842;8.926;2023-05-08T08:58:01;97540.09;;;17.41;95.59
1401;BME280;46518;48.842;8.926;2023-05-08T09:00:30;97544.63;;;17.41;95.46
1401;BME280;46518;48.842;8.926;2023-05-08T09:02:59;97548.09;;;17.41;95.50
1401;BME280;46518;48.842;8.926;2023-05-08T09:05:28;97547.88;;;17.38;95.45
1401;BME280;46518;48.842;8.926;2023-05-08T09:07:57;97544.94;;;17.34;95.28
1401;BME280;46518;48.842;8.926;2023-05-08T09:10:27;97555.06;;;17.32;95.27
1401;BME280;46518;48.842;8.926;2023-05-08T09:12:55;97556.72;;;17.28;95.35
1401;BME280;46518;48.842;8.926;2023-05-08T09:15:24;97555.63;;;17.29;95.56
1401;BME280;46518;48.842;8.926;2023-05-08T09:17:52;97552.69;;;17.31;95.87
1401;BME280;46518;48.842;8.926;2023-05-08T09:20:21;97554.06;;;17.28;96.11
1401;BME280;46518;48.842;8.926;2023-05-08T09:22:50;97550.63;;;17.22;96.29
1401;BME280;46518;48.842;8.926;2023-05-08T09:25:20;97549.06;;;17.16;96.70
1401;BME280;46518;48.842;8.926;2023-05-08T09:27:52;97556.50;;;17.19;97.26
1401;BME280;46518;48.842;8.926;2023-05-08T09:30:20;97559.41;;;17.23;97.75
1401;BME280;46518;48.842;8.926;2023-05-08T09:35:36;97560.78;;;17.15;98.50
1401;BME280;46518;48.842;8.926;2023-05-08T09:38:04;97558.94;;;17.16;98.70
1401;BME280;46518;48.842;8.926;2023-05-08T09:40:33;97559.72;;;17.16;98.67
1401;BME280;46518;48.842;8.926;2023-05-08T09:43:12;97564.53;;;17.09;98.80
1401;BME280;46518;48.842;8.926;2023-05-08T09:45:40;97552.06;;;17.04;99.19
1401;BME280;46518;48.842;8.926;2023-05-08T09:48:09;97561.63;;;17.11;99.50
1401;BME280;46518;48.842;8.926;2023-05-08T09:50:38;97561.59;;;17.16;100.00
1401;BME280;46518;48.842;8.926;2023-05-08T09:53:09;97562.34;;;17.21;100.00
1401;BME280;46518;48.842;8.926;2023-05-08T09:55:47;97562.28;;;17.27;100.00
1401;BME280;46518;48.842;8.926;2023-05-08T09:58:16;97558.25;;;17.34;100.00
1401;BME280;46518;48.842;8.926;2023-05-08T10:00:45;97563.81;;;17.38;100.00
1401;BME280;46518;48.842;8.926;2023-05-08T10:03:13;97561.94;;;17.38;100.00
1401;BME280;46518;48.842;8.926;2023-05-08T10:05:41;97555.28;;;17.41;100.00
1401;BME280;46518;48.842;8.926;2023-05-08T10:08:18;97564.06;;;17.41;100.00
1401;BME280;46518;48.842;8.926;2023-05-08T10:11:02;97553.69;;;17.40;100.00
1401;BME280;46518;48.842;8.926;2023-05-08T10:13:41;97561.66;;;17.45;100.00
1401;BME280;46518;48.842;8.926;2023-05-08T10:16:13;97553.69;;;17.40;100.00
1401;BME280;46518;48.842;8.926;2023-05-08T10:18:46;97556.06;;;17.41;100.00
1401;BME280;46518;48.842;8.926;2023-05-08T10:21:16;97557.91;;;17.46;100.00
1401;BME280;46518;48.842;8.926;2023-05-08T10:23:47;97559.69;;;17.56;100.00
1401;BME280;46518;48.842;8.926;2023-05-08T10:26:22;97555.91;;;17.62;100.00
1401;BME280;46518;48.842;8.926;2023-05-08T10:28:56;97563.59;;;17.63;100.00
1401;BME280;46518;48.842;8.926;2023-05-08T10:31:27;97566.22;;;17.68;100.00
1401;BME280;46518;48.842;8.926;2023-05-08T10:33:59;97561.66;;;17.74;100.00
1401;BME280;46518;48.842;8.926;2023-05-08T10:36:29;97566.91;;;17.79;100.00
1401;BME280;46518;48.842;8.926;2023-05-08T10:38:57;97559.47;;;17.81;100.00
1401;BME280;46518;48.842;8.926;2023-05-08T10:41:26;97564.03;;;17.76;100.00
1401;BME280;46518;48.842;8.926;2023-05-08T10:43:58;97556.84;;;17.76;100.00
1401;BME280;46518;48.842;8.926;2023-05-08T10:46:39;97561.09;;;17.82;100.00
1401;BME280;46518;48.842;8.926;2023-05-08T10:49:17;97552.28;;;17.82;99.90
1401;BME280;46518;48.842;8.926;2023-05-08T10:51:55;97557.56;;;17.87;99.62
1401;BME280;46518;48.842;8.926;2023-05-08T10:54:35;97554.63;;;17.88;99.55
1401;BME280;46518;48.842;8.926;2023-05-08T10:57:09;97551.69;;;17.90;99.41
1401;BME280;46518;48.842;8.926;2023-05-08T10:59:43;97548.41;;;17.98;99.68
1401;BME280;46518;48.842;8.926;2023-05-08T11:02:13;97548.63;;;18.02;99.30
1401;BME280;46518;48.842;8.926;2023-05-08T11:04:42;97551.53;;;18.05;99.30
1401;BME280;46518;48.842;8.926;2023-05-08T11:07:10;97546.16;;;18.10;99.01
1401;BME280;46518;48.842;8.926;2023-05-08T11:09:45;97555.66;;;18.17;98.70
1401;BME280;46518;48.842;8.926;2023-05-08T11:12:20;97547.38;;;18.18;98.47
1401;BME280;46518;48.842;8.926;2023-05-08T11:14:59;97553.75;;;18.22;98.48
1401;BME280;46518;48.842;8.926;2023-05-08T11:17:28;97547.00;;;18.30;99.00
1401;BME280;46518;48.842;8.926;2023-05-08T11:19:58;97545.06;;;18.36;98.29
1401;BME280;46518;48.842;8.926;2023-05-08T11:22:28;97541.38;;;18.31;98.15
1401;BME280;46518;48.842;8.926;2023-05-08T11:25:03;97541.59;;;18.35;97.79
1401;BME280;46518;48.842;8.926;2023-05-08T11:30:36;97535.69;;;18.38;97.66
1401;BME280;46518;48.842;8.926;2023-05-08T11:33:15;97533.75;;;18.44;97.08
1401;BME280;46518;48.842;8.926;2023-05-08T11:35:53;97536.16;;;18.45;96.79
1401;BME280;46518;48.842;8.926;2023-05-08T11:38:26;97527.06;;;18.46;96.50
1401;BME280;46518;48.842;8.926;2023-05-08T11:40:56;97531.53;;;18.51;95.88
1401;BME280;46518;48.842;8.926;2023-05-08T11:43:53;97537.16;;;18.49;95.59
1401;BME280;46518;48.842;8.926;2023-05-08T11:46:35;97521.38;;;18.53;95.42
1401;BME280;46518;48.842;8.926;2023-05-08T11:49:05;97525.56;;;18.59;95.56
1401;BME280;46518;48.842;8.926;2023-05-08T11:51:37;97521.75;;;18.65;95.33
1401;BME280;46518;48.842;8.926;2023-05-08T11:54:15;97521.69;;;18.70;95.18
1401;BME280;46518;48.842;8.926;2023-05-08T11:56:45;97517.53;;;18.83;95.18
1401;BME280;46518;48.842;8.926;2023-05-08T11:59:14;97520.06;;;18.93;94.76
1401;BME280;46518;48.842;8.926;2023-05-08T12:01:46;97515.16;;;19.01;94.40
1401;BME280;46518;48.842;8.926;2023-05-08T12:04:19;97521.63;;;19.13;93.78
1401;BME280;46518;48.842;8.926;2023-05-08T12:06:48;97515.84;;;19.25;93.21
1401;BME280;46518;48.842;8.926;2023-05-08T12:09:17;97523.19;;;19.33;92.66
1401;BME280;46518;48.842;8.926;2023-05-08T12:11:46;97520.66;;;19.42;91.81
1401;BME280;46518;48.842;8.926;2023-05-08T12:14:16;97524.97;;;19.38;91.42
1401;BME280;46518;48.842;8.926;2023-05-08T12:16:46;97522.50;;;19.42;90.24
1401;BME280;46518;48.842;8.926;2023-05-08T12:19:14;97522.03;;;19.39;90.12
1401;BME280;46518;48.842;8.926;2023-05-08T12:21:45;97525.91;;;19.47;90.08
1401;BME280;46518;48.842;8.926;2023-05-08T12:24:15;97518.84;;;19.37;89.61
1401;BME280;46518;48.842;8.926;2023-05-08T12:26:51;97528.53;;;19.14;89.15
1401;BME280;46518;48.842;8.926;2023-05-08T12:29:20;97525.81;;;19.01;88.68
1401;BME280;46518;48.842;8.926;2023-05-08T12:31:50;97525.97;;;18.90;89.89
1401;BME280;46518;48.842;8.926;2023-05-08T12:34:20;97528.22;;;18.83;89.99
1401;BME280;46518;48.842;8.926;2023-05-08T12:37:00;97524.63;;;18.69;90.03
1401;BME280;46518;48.842;8.926;2023-05-08T12:39:33;97534.38;;;18.60;89.86
1401;BME280;46518;48.842;8.926;2023-05-08T12:42:02;97529.09;;;18.54;90.33
1401;BME280;46518;48.842;8.926;2023-05-08T12:44:30;97521.59;;;18.57;90.48
1401;BME280;46518;48.842;8.926;2023-05-08T12:47:00;97529.59;;;18.57;91.02
1401;BME280;46518;48.842;8.926;2023-05-08T12:49:30;97532.19;;;18.62;90.89
1401;BME280;46518;48.842;8.926;2023-05-08T12:52:00;97532.25;;;18.57;91.58
1401;BME280;46518;48.842;8.926;2023-05-08T12:54:33;97530.09;;;18.59;91.92
1401;BME280;46518;48.842;8.926;2023-05-08T12:57:07;97533.34;;;18.56;92.13
1401;BME280;46518;48.842;8.926;2023-05-08T12:59:36;97527.50;;;18.53;92.10
1401;BME280;46518;48.842;8.926;2023-05-08T13:02:12;97532.31;;;18.51;92.10
1401;BME280;46518;48.842;8.926;2023-05-08T13:04:41;97528.28;;;18.54;92.18
1401;BME280;46518;48.842;8.926;2023-05-08T13:07:10;97531.16;;;18.39;92.10
1401;BME280;46518;48.842;8.926;2023-05-08T13:09:38;97525.63;;;18.35;92.70
1401;BME280;46518;48.842;8.926;2023-05-08T13:12:07;97521.13;;;18.30;92.78
1401;BME280;46518;48.842;8.926;2023-05-08T13:14:35;97530.38;;;18.38;92.81
1401;BME280;46518;48.842;8.926;2023-05-08T13:17:03;97520.28;;;18.35;92.48
1401;BME280;46518;48.842;8.926;2023-05-08T13:19:33;97526.91;;;18.14;93.18
1401;BME280;46518;48.842;8.926;2023-05-08T13:22:01;97523.81;;;18.06;93.70
1401;BME280;46518;48.842;8.926;2023-05-08T13:24:32;97525.53;;;17.97;94.61
1401;BME280;46518;48.842;8.926;2023-05-08T13:27:00;97528.97;;;17.68;96.19
1401;BME280;46518;48.842;8.926;2023-05-08T13:29:28;97514.19;;;17.52;96.88